Time;durP1;ratioP1;P1;durP2;ratioP2;P2;SDS_P1;SDS_P2;PMS_P1;PMS_P2;Temp;Humidity;BMP_temperature;BMP_pressure;BME280_temperature;BME280_humidity;BME280_pressure;Samples;Min_cycle;Max_cycle;Signal;HPM_P1;HPM_P2
2023/01/10 00:00:58;;;;;;;18.00;4.30;;;;;;;5.96;94.35;100551.05;124318;1098;104275;-83
2023/01/10 00:03:31;;;;;;;18.63;4.10;;;;;;;5.93;94.12;100548.28;124124;1099;104374;-83
2023/01/10 00:06:02;;;;;;;16.10;4.40;;;;;;;5.88;93.53;100552.35;124324;1099;104271;-82
2023/01/10 00:08:34;;;;;;;24.23;4.60;;;;;;;5.82;93.67;100549.41;124242;1099;105607;-81
2023/01/10 00:13:22;;;;;;;14.63;4.50;;;;;;;5.78;93.87;100553.56;124158;1099;104267;-81
2023/01/10 00:13:57;;;;;;;16.87;4.77;;;;;;;5.74;93.79;100548.98;124243;1099;104373;-81
2023/01/10 00:16:28;;;;;;;16.73;4.43;;;;;;;5.69;93.98;100556.53;124154;1099;104294;-81
2023/01/10 00:18:59;;;;;;;15.03;4.63;;;;;;;5.69;93.86;100555.65;124217;1098;104262;-83
2023/01/10 00:21:31;;;;;;;19.07;4.40;;;;;;;5.67;93.69;100552.95;124204;1099;104264;-80
2023/01/10 00:24:16;;;;;;;18.97;4.43;;;;;;;5.64;93.67;100573.61;124230;1099;104325;-82
2023/01/10 00:26:51;;;;;;;17.53;4.70;;;;;;;5.61;94.05;100559.50;124179;1099;104186;-84
2023/01/10 00:29:28;;;;;;;13.50;4.03;;;;;;;5.59;94.24;100562.02;124266;1098;104288;-82
2023/01/10 00:31:59;;;;;;;17.17;5.13;;;;;;;5.57;93.81;100554.12;124364;1098;104342;-82
2023/01/10 00:34:31;;;;;;;16.17;4.67;;;;;;;5.57;93.93;100553.23;124333;1099;104342;-85
2023/01/10 00:37:02;;;;;;;19.40;4.50;;;;;;;5.59;94.24;100541.19;124262;1099;104182;-82
2023/01/10 00:39:33;;;;;;;21.00;5.70;;;;;;;5.62;94.37;100543.97;124278;1099;104269;-81
2023/01/10 00:44:54;;;;;;;19.80;4.17;;;;;;;5.63;94.20;100526.66;124032;1099;104271;-82
2023/01/10 00:47:25;;;;;;;16.47;4.20;;;;;;;5.60;94.16;100522.17;124111;1099;104244;-81
2023/01/10 00:49:56;;;;;;;19.10;5.20;;;;;;;5.61;94.14;100523.05;124218;1099;104242;-82
2023/01/10 00:52:28;;;;;;;18.20;5.35;;;;;;;5.57;94.00;100507.27;124315;1099;104367;-82
2023/01/10 00:54:59;;;;;;;16.13;4.83;;;;;;;5.59;94.35;100515.16;124129;1098;104239;-81
2023/01/10 00:57:30;;;;;;;19.50;4.60;;;;;;;5.56;94.01;100509.78;124137;1098;104693;-80
2023/01/10 01:00:02;;;;;;;18.87;4.77;;;;;;;5.50;94.00;100510.36;124154;1099;104381;-82
2023/01/10 01:02:33;;;;;;;17.95;4.85;;;;;;;5.45;93.60;100516.10;124084;1099;104178;-82
2023/01/10 01:05:05;;;;;;;21.00;5.10;;;;;;;5.40;93.72;100516.73;124326;1099;104377;-79
2023/01/10 01:07:36;;;;;;;22.90;5.40;;;;;;;5.38;93.73;100520.08;124165;1099;104370;-82
2023/01/10 01:10:28;;;;;;;19.47;5.40;;;;;;;5.35;93.74;100514.70;124322;1099;104326;-81
2023/01/10 01:13:05;;;;;;;19.60;5.00;;;;;;;5.33;93.66;100500.67;124178;1099;104245;-80
2023/01/10 01:15:37;;;;;;;16.87;4.87;;;;;;;5.30;93.51;100497.90;124116;1099;104291;-83
2023/01/10 01:18:09;;;;;;;18.27;4.93;;;;;;;5.24;93.59;100506.27;124176;1099;104489;-81
2023/01/10 01:20:42;;;;;;;21.00;5.20;;;;;;;5.22;93.80;100507.91;124108;1099;104252;-82
2023/01/10 01:23:13;;;;;;;19.00;5.13;;;;;;;5.18;93.42;100499.00;124041;1099;104251;-82
2023/01/10 01:25:44;;;;;;;21.17;5.73;;;;;;;5.13;93.29;100508.27;124162;1099;104367;-83
2023/01/10 01:28:16;;;;;;;15.60;5.33;;;;;;;5.11;93.12;100508.97;124118;1099;104249;-82
2023/01/10 01:30:47;;;;;;;17.63;5.07;;;;;;;5.07;93.01;100497.50;124206;1099;118646;-83
2023/01/10 01:33:19;;;;;;;17.47;4.63;;;;;;;5.04;93.06;100498.21;124034;1099;104357;-81
2023/01/10 01:35:51;;;;;;;18.85;5.00;;;;;;;5.01;93.43;100505.83;124191;1099;104306;-83
2023/01/10 01:38:22;;;;;;;17.73;5.07;;;;;;;4.98;93.08;100497.85;124084;1099;104226;-81
2023/01/10 01:40:53;;;;;;;22.87;5.30;;;;;;;4.96;93.18;100502.08;124078;1099;104252;-83
2023/01/10 01:43:27;;;;;;;16.97;5.60;;;;;;;4.93;92.90;100503.62;124164;1099;104368;-81
2023/01/10 01:46:00;;;;;;;;;;;;;;;4.92;93.47;100494.89;124318;1099;104277;-82
2023/01/10 01:48:36;;;;;;;19.80;5.33;;;;;;;4.91;93.07;100495.72;124151;1099;104328;-82
2023/01/10 01:51:11;;;;;;;23.60;5.50;;;;;;;4.88;93.18;100489.42;124218;1099;104338;-81
2023/01/10 01:53:47;;;;;;;21.83;5.43;;;;;;;4.85;92.90;100482.37;124324;1099;104226;-81
2023/01/10 01:56:21;;;;;;;20.80;5.13;;;;;;;4.80;93.39;100491.58;124345;1098;104300;-83
2023/01/10 01:58:56;;;;;;;18.40;5.67;;;;;;;4.76;92.89;100490.51;124578;1099;104293;-83
2023/01/10 02:01:29;;;;;;;21.83;5.70;;;;;;;4.74;93.03;100478.25;124301;1099;104329;-81
2023/01/10 02:04:08;;;;;;;19.23;5.90;;;;;;;4.73;93.36;100473.84;124302;1099;104300;-82
2023/01/10 02:06:40;;;;;;;25.00;6.20;;;;;;;4.71;93.18;100476.36;124385;1099;104271;-82
2023/01/10 02:09:17;;;;;;;17.53;5.43;;;;;;;4.70;92.88;100478.87;124446;1099;104344;-83
2023/01/10 02:11:48;;;;;;;18.40;5.80;;;;;;;4.67;92.78;100480.48;124302;1099;107792;-81
2023/01/10 02:14:22;;;;;;;17.07;5.90;;;;;;;4.68;93.02;100479.66;124520;1099;104345;-83
2023/01/10 02:16:53;;;;;;;19.27;5.93;;;;;;;4.68;93.40;100477.06;124422;1099;104245;-82
2023/01/10 02:19:33;;;;;;;24.53;6.63;;;;;;;4.67;93.07;100479.56;124265;1099;104226;-83
2023/01/10 02:22:38;;;;;;;23.97;5.77;;;;;;;4.64;92.91;100482.91;124242;1099;119139;-84
2023/01/10 02:25:47;;;;;;;18.00;5.63;;;;;;;4.65;93.41;100481.19;124156;1099;104226;-81
2023/01/10 02:28:57;;;;;;;23.50;6.70;;;;;;;4.63;93.04;100482.81;124256;1099;104194;-80
2023/01/10 02:35:00;;;;;;;23.73;5.73;;;;;;;4.59;93.70;100473.92;123927;1101;104255;-81
2023/01/10 02:37:44;;;;;;;20.23;6.23;;;;;;;4.61;92.75;100485.33;123428;1102;104248;-82
2023/01/10 02:40:27;;;;;;;23.97;5.87;;;;;;;4.59;93.51;100473.03;123492;1105;104249;-83
2023/01/10 02:43:05;;;;;;;25.93;7.00;;;;;;;4.57;93.08;100478.14;123487;1102;104303;-83
2023/01/10 02:45:43;;;;;;;23.27;6.60;;;;;;;4.55;93.36;100471.97;123401;1102;104306;-83
2023/01/10 02:48:16;;;;;;;23.03;7.07;;;;;;;4.56;93.55;100465.94;123426;1102;104647;-81
2023/01/10 02:50:56;;;;;;;17.73;6.13;;;;;;;4.55;93.30;100468.45;123502;1102;104390;-81
2023/01/10 02:53:34;;;;;;;21.05;7.80;;;;;;;4.52;92.53;100469.19;123443;1102;104357;-81
2023/01/10 02:56:44;;;;;;;22.93;7.23;;;;;;;4.50;93.30;100479.48;123406;1102;117784;-82
2023/01/10 02:59:46;;;;;;;27.85;7.55;;;;;;;4.47;92.58;100467.98;123527;1102;104233;-83
2023/01/10 03:02:29;;;;;;;27.20;8.47;;;;;;;4.42;92.64;100470.31;123205;1105;104364;-83
2023/01/10 03:05:09;;;;;;;23.03;7.67;;;;;;;4.38;93.22;100462.24;123334;1102;104265;-83
2023/01/10 03:07:49;;;;;;;25.67;8.30;;;;;;;4.33;93.12;100474.95;123417;1102;104306;-82
2023/01/10 03:10:28;;;;;;;33.80;9.90;;;;;;;4.31;93.24;100485.25;123370;1102;104252;-83
2023/01/10 03:13:02;;;;;;;26.33;9.23;;;;;;;4.34;92.77;100483.67;123378;1102;104398;-82
2023/01/10 03:15:37;;;;;;;28.47;9.60;;;;;;;4.31;92.96;100494.76;123271;1102;104189;-80
2023/01/10 03:18:14;;;;;;;24.73;8.83;;;;;;;4.25;92.99;100490.08;123356;1102;104331;-81
2023/01/10 03:20:48;;;;;;;31.67;10.00;;;;;;;4.20;92.52;100488.03;123355;1105;104271;-80
2023/01/10 03:23:23;;;;;;;30.90;9.18;;;;;;;4.14;93.41;100494.65;123488;1102;104756;-82
2023/01/10 03:25:56;;;;;;;28.60;9.50;;;;;;;4.11;92.55;100489.27;123707;1102;104262;-81
2023/01/10 03:28:34;;;;;;;28.17;9.53;;;;;;;4.09;92.98;100488.25;123866;1102;104274;-81
2023/01/10 03:31:10;;;;;;;27.03;9.17;;;;;;;4.08;93.03;100489.08;123737;1102;104281;-82
2023/01/10 03:33:42;;;;;;;26.03;8.60;;;;;;;4.06;93.37;100484.58;123812;1102;104293;-84
2023/01/10 03:36:25;;;;;;;32.53;9.30;;;;;;;4.04;92.85;100481.00;123718;1102;104712;-81
2023/01/10 03:39:03;;;;;;;32.33;10.23;;;;;;;4.02;93.22;100474.80;123691;1102;104714;-83
2023/01/10 03:41:40;;;;;;;26.03;9.30;;;;;;;4.01;93.19;100467.83;123893;1102;104280;-79
2023/01/10 03:47:09;;;;;;;29.10;10.00;;;;;;;3.98;93.54;100483.22;123632;1102;104285;-84
2023/01/10 03:49:44;;;;;;;29.13;9.40;;;;;;;3.98;93.21;100481.52;123735;1101;104309;-81
2023/01/10 03:52:14;;;;;;;;;;;;;;;3.98;93.86;100484.11;123811;1102;104408;-81
2023/01/10 03:54:47;;;;;;;25.67;9.47;;;;;;;3.98;92.83;100488.41;123854;1102;104335;-82
2023/01/10 03:57:22;;;;;;;29.10;10.37;;;;;;;3.96;93.60;100486.61;123997;1100;108763;-82
2023/01/10 03:59:58;;;;;;;34.33;9.90;;;;;;;3.99;93.51;100479.80;123756;1100;104320;-80
2023/01/10 04:02:33;;;;;;;28.33;10.47;;;;;;;4.02;93.38;100482.59;123840;1102;104194;-82
2023/01/10 04:05:06;;;;;;;25.33;9.23;;;;;;;4.04;93.39;100484.48;123821;1101;104290;-82
2023/01/10 04:07:38;;;;;;;33.43;10.60;;;;;;;4.03;93.73;100466.22;124077;1102;104255;-84
2023/01/10 04:10:11;;;;;;;32.27;11.10;;;;;;;4.00;93.58;100473.81;123873;1102;104258;-83
2023/01/10 04:12:42;;;;;;;33.67;11.40;;;;;;;4.01;93.43;100480.81;123776;1102;104229;-84
2023/01/10 04:15:13;;;;;;;38.73;12.37;;;;;;;3.99;93.54;100478.13;123785;1102;104360;-83
2023/01/10 04:17:47;;;;;;;35.23;12.47;;;;;;;4.01;93.13;100473.02;123803;1102;104243;-83
2023/01/10 04:20:18;;;;;;;33.70;12.17;;;;;;;4.00;93.16;100466.03;123790;1102;104361;-82
2023/01/10 04:23:00;;;;;;;32.70;11.97;;;;;;;3.96;93.42;100471.03;123950;1100;104351;-82
2023/01/10 04:25:34;;;;;;;32.60;12.63;;;;;;;3.93;93.25;100457.86;123947;1102;104197;-83
2023/01/10 04:28:08;;;;;;;34.20;12.90;;;;;;;3.90;93.71;100475.84;123843;1102;119328;-83
2023/01/10 04:30:40;;;;;;;30.53;13.23;;;;;;;3.89;93.18;100481.83;123808;1101;104245;-81
2023/01/10 04:33:13;;;;;;;35.13;13.03;;;;;;;3.88;93.40;100468.75;123874;1102;104277;-82
2023/01/10 04:35:51;;;;;;;38.17;14.30;;;;;;;3.88;93.09;100467.08;123905;1102;104266;-84
2023/01/10 04:38:22;;;;;;;40.47;14.10;;;;;;;3.86;93.56;100473.84;124069;1101;104781;-83
2023/01/10 04:40:58;;;;;;;37.55;14.00;;;;;;;3.85;93.00;100468.56;123831;1102;104361;-80
2023/01/10 04:43:31;;;;;;;40.50;14.37;;;;;;;3.79;92.90;100466.50;123991;1102;104182;-80
2023/01/10 04:46:02;;;;;;;43.17;16.30;;;;;;;3.76;92.70;100463.72;123931;1102;104242;-82
2023/01/10 04:48:36;;;;;;;40.17;15.00;;;;;;;3.73;93.27;100463.52;123830;1102;104275;-84
2023/01/10 04:51:07;;;;;;;39.10;15.50;;;;;;;3.68;92.64;100472.73;123939;1102;104245;-82
2023/01/10 04:53:38;;;;;;;39.30;15.20;;;;;;;3.58;92.03;100476.42;123784;1102;104284;-82
2023/01/10 04:56:27;;;;;;;45.00;15.63;;;;;;;3.47;92.13;100482.64;123808;1101;102874;-82
2023/01/10 04:59:00;;;;;;;39.10;15.13;;;;;;;3.41;92.00;100488.31;124147;1102;104252;-80
2023/01/10 05:01:34;;;;;;;38.47;13.70;;;;;;;3.36;92.14;100479.36;123852;1102;104331;-79
2023/01/10 05:04:06;;;;;;;43.68;15.38;;;;;;;3.29;92.49;100484.94;123870;1102;104201;-80
2023/01/10 05:06:39;;;;;;;37.27;15.57;;;;;;;3.23;92.88;100477.67;123821;1102;104173;-83
2023/01/10 05:09:10;;;;;;;30.97;12.50;;;;;;;3.20;92.94;100480.07;123936;1102;104326;-81
2023/01/10 05:11:42;;;;;;;47.20;16.77;;;;;;;3.17;92.12;100487.66;123835;1102;104648;-82
2023/01/10 05:14:13;;;;;;;45.00;16.50;;;;;;;3.15;92.51;100477.17;123853;1102;104743;-82
2023/01/10 05:16:44;;;;;;;50.40;17.53;;;;;;;3.09;92.41;100488.86;123833;1101;104223;-82
2023/01/10 05:19:15;;;;;;;43.05;17.50;;;;;;;3.08;92.25;100493.12;123952;1102;104323;-83
2023/01/10 05:21:47;;;;;;;42.30;16.73;;;;;;;3.07;92.37;100493.94;124085;1102;104180;-81
2023/01/10 05:24:18;;;;;;;44.20;17.43;;;;;;;3.05;92.82;100487.73;123805;1102;104200;-84
2023/01/10 05:26:49;;;;;;;46.87;17.23;;;;;;;3.03;92.38;100489.34;124020;1102;104313;-81
2023/01/10 05:29:20;;;;;;;44.30;18.70;;;;;;;3.02;92.09;100497.91;123915;1102;104379;-82
2023/01/10 05:31:54;;;;;;;46.73;18.47;;;;;;;3.02;92.07;100492.72;123957;1102;104204;-82
2023/01/10 05:34:25;;;;;;;45.70;17.23;;;;;;;2.99;92.37;100489.92;123838;1102;104297;-81
2023/01/10 05:36:56;;;;;;;46.17;17.87;;;;;;;2.97;92.55;100483.75;123850;1102;104232;-82
2023/01/10 05:39:27;;;;;;;45.60;17.97;;;;;;;2.92;92.45;100486.04;123884;1102;104350;-82
2023/01/10 05:41:59;;;;;;;45.43;17.83;;;;;;;2.92;92.19;100491.22;124085;1102;104185;-81
2023/01/10 05:44:30;;;;;;;48.20;18.43;;;;;;;2.94;92.94;100493.91;124081;1101;104408;-83
2023/01/10 05:47:01;;;;;;;52.33;20.13;;;;;;;2.93;92.70;100489.52;124242;1102;104261;-79
2023/01/10 05:49:33;;;;;;;48.20;18.40;;;;;;;2.95;92.67;100487.95;124892;1100;104297;-81
2023/01/10 05:52:05;;;;;;;43.93;17.47;;;;;;;2.96;92.34;100488.05;124673;1102;104258;-82
2023/01/10 05:54:36;;;;;;;55.43;20.90;;;;;;;2.93;92.77;100476.55;124904;1102;104175;-83
2023/01/10 05:57:07;;;;;;;49.03;18.80;;;;;;;2.91;92.14;100492.01;125276;1099;102120;-82
2023/01/10 05:59:39;;;;;;;52.57;19.43;;;;;;;2.86;92.38;100476.16;124765;1099;104351;-81
2023/01/10 06:02:10;;;;;;;50.90;19.17;;;;;;;2.85;92.77;100479.56;124581;1098;104308;-82
2023/01/10 06:04:42;;;;;;;49.60;19.10;;;;;;;2.84;93.16;100480.34;124996;1098;104172;-82
2023/01/10 06:07:14;;;;;;;49.10;18.97;;;;;;;2.85;92.61;100474.37;124771;1099;104361;-80
2023/01/10 06:09:45;;;;;;;49.90;17.95;;;;;;;2.84;92.46;100476.88;124758;1098;104210;-79
2023/01/10 06:12:17;;;;;;;46.70;19.30;;;;;;;2.83;92.49;100475.95;124834;1099;104258;-78
2023/01/10 06:14:48;;;;;;;44.90;18.73;;;;;;;2.86;93.37;100481.34;124876;1099;104229;-79
2023/01/10 06:17:20;;;;;;;45.13;18.50;;;;;;;2.87;92.81;100464.11;124736;1098;104245;-80
2023/01/10 06:19:51;;;;;;;44.60;19.10;;;;;;;2.85;93.40;100484.75;124856;1099;104358;-80
2023/01/10 06:22:23;;;;;;;45.50;17.50;;;;;;;2.84;93.06;100482.94;124483;1099;104259;-81
2023/01/10 06:24:54;;;;;;;48.70;18.23;;;;;;;2.80;93.54;100477.45;124741;1099;104293;-80
2023/01/10 06:27:26;;;;;;;39.70;16.60;;;;;;;2.78;94.11;100482.53;125098;1098;104206;-77
2023/01/10 06:29:58;;;;;;;50.63;19.00;;;;;;;2.77;93.48;100485.91;125175;1099;104239;-80
2023/01/10 06:32:29;;;;;;;45.87;18.33;;;;;;;2.76;93.91;100476.36;124874;1099;104220;-80
2023/01/10 06:35:02;;;;;;;45.00;18.00;;;;;;;2.76;93.46;100483.21;125016;1099;104399;-80
2023/01/10 06:37:33;;;;;;;50.50;17.70;;;;;;;2.76;93.47;100473.77;125116;1099;106296;-78
2023/01/10 06:40:06;;;;;;;42.07;16.83;;;;;;;2.78;93.89;100485.13;125424;1099;104201;-78
2023/01/10 06:42:40;;;;;;;43.60;17.65;;;;;;;2.79;93.18;100479.16;124988;1099;104246;-78
2023/01/10 06:45:12;;;;;;;44.35;18.82;;;;;;;2.75;93.49;100487.51;125022;1099;104290;-78
2023/01/10 06:47:44;;;;;;;43.73;17.33;;;;;;;2.73;93.41;100490.78;125326;1099;104271;-81
2023/01/10 06:50:18;;;;;;;46.23;17.60;;;;;;;2.72;94.12;100486.42;125264;1099;104383;-78
2023/01/10 06:52:57;;;;;;;42.30;17.17;;;;;;;2.69;93.91;100481.92;124967;1099;104171;-79
2023/01/10 06:55:29;;;;;;;43.77;16.30;;;;;;;2.69;94.43;100502.64;125448;1098;104347;-77
2023/01/10 06:58:04;;;;;;;38.70;15.10;;;;;;;2.67;95.10;100488.70;124972;1099;104121;-78
2023/01/10 07:00:35;;;;;;;45.90;15.73;;;;;;;2.64;94.72;100489.38;125313;1099;103300;-80
2023/01/10 07:03:09;;;;;;;45.97;17.00;;;;;;;2.64;94.73;100489.38;125320;1099;104172;-79
2023/01/10 07:05:40;;;;;;;39.77;15.83;;;;;;;2.64;94.79;100496.27;125430;1099;104195;-80
2023/01/10 07:08:15;;;;;;;38.60;16.43;;;;;;;2.62;94.76;100495.28;125538;1099;104178;-80
2023/01/10 07:10:46;;;;;;;40.60;16.63;;;;;;;2.60;94.89;100489.99;125361;1099;104182;-78
2023/01/10 07:13:18;;;;;;;39.60;15.87;;;;;;;2.61;94.95;100496.06;125285;1099;104249;-78
2023/01/10 07:15:52;;;;;;;33.27;13.97;;;;;;;2.63;94.89;100497.97;125249;1099;104690;-76
2023/01/10 07:18:26;;;;;;;41.03;16.67;;;;;;;2.65;94.86;100505.81;125324;1099;102331;-77
2023/01/10 07:20:58;;;;;;;34.03;15.00;;;;;;;2.63;94.41;100499.64;125099;1099;104139;-80
2023/01/10 07:23:30;;;;;;;37.43;15.73;;;;;;;2.64;95.01;100501.45;125341;1099;104219;-78
2023/01/10 07:26:05;;;;;;;39.83;15.57;;;;;;;2.62;94.62;100497.87;124850;1099;104288;-80
2023/01/10 07:28:39;;;;;;;37.90;14.93;;;;;;;2.60;94.42;100491.66;125291;1099;103876;-79
2023/01/10 07:31:15;;;;;;;36.53;15.50;;;;;;;2.59;94.55;100505.44;125424;1099;104176;-80
2023/01/10 07:33:47;;;;;;;36.07;14.43;;;;;;;2.58;94.96;100503.62;125471;1099;102527;-78
2023/01/10 07:36:18;;;;;;;33.37;14.33;;;;;;;2.60;94.98;100502.02;125521;1099;102331;-78
2023/01/10 07:38:50;;;;;;;35.40;14.67;;;;;;;2.60;95.08;100502.95;125715;1099;104354;-79
2023/01/10 07:41:21;;;;;;;35.33;15.00;;;;;;;2.61;94.94;100509.02;125516;1098;103752;-79
2023/01/10 07:44:07;;;;;;;35.60;15.87;;;;;;;2.64;95.42;100499.75;125469;1099;104210;-82
2023/01/10 07:46:40;;;;;;;41.43;15.27;;;;;;;2.68;95.23;100506.94;124894;1099;104245;-79
2023/01/10 07:49:12;;;;;;;37.00;15.80;;;;;;;2.69;95.46;100507.83;125587;1099;102011;-78
2023/01/10 07:51:44;;;;;;;36.40;15.23;;;;;;;2.69;95.50;100506.13;126303;1099;104465;-79
2023/01/10 07:54:16;;;;;;;40.50;16.70;;;;;;;2.72;95.83;100504.55;126772;1099;101930;-78
2023/01/10 07:56:48;;;;;;;35.10;15.23;;;;;;;2.74;95.67;100501.25;126782;1099;102608;-79
2023/01/10 07:59:20;;;;;;;33.53;14.17;;;;;;;2.78;96.22;100508.45;126723;1099;102121;-78
2023/01/10 08:01:55;;;;;;;35.07;14.63;;;;;;;2.81;95.35;100502.58;126783;1099;102417;-79
2023/01/10 08:04:31;;;;;;;33.33;14.27;;;;;;;2.80;95.64;100512.03;126754;1098;101987;-80
2023/01/10 08:07:03;;;;;;;33.77;14.77;;;;;;;2.79;96.13;100512.84;126810;1099;102294;-80
2023/01/10 08:09:37;;;;;;;32.30;13.70;;;;;;;2.79;96.13;100512.84;126854;1098;101864;-77
2023/01/10 08:12:12;;;;;;;32.07;14.17;;;;;;;2.82;95.58;100526.01;126918;1098;102356;-78
2023/01/10 08:14:44;;;;;;;30.63;12.90;;;;;;;2.83;96.18;100507.05;126799;1098;101783;-80
2023/01/10 08:17:15;;;;;;;30.97;11.63;;;;;;;2.80;96.42;100513.73;126643;1098;103230;-78
2023/01/10 08:20:10;;;;;;;35.08;13.35;;;;;;;2.79;96.52;100518.03;126731;1098;102218;-79
2023/01/10 08:22:42;;;;;;;30.47;13.23;;;;;;;2.79;96.99;100510.25;126837;1098;102379;-80
2023/01/10 08:25:13;;;;;;;28.87;11.47;;;;;;;2.80;96.48;100521.51;126906;1098;102171;-78
2023/01/10 08:27:45;;;;;;;30.00;12.20;;;;;;;2.80;97.22;100531.87;126895;1098;101957;-73
2023/01/10 08:30:20;;;;;;;26.90;11.93;;;;;;;2.80;98.08;100522.39;126780;1099;103885;-76
2023/01/10 08:32:52;;;;;;;31.00;12.27;;;;;;;2.83;96.38;100520.01;126581;1099;102791;-77
2023/01/10 08:35:23;;;;;;;28.33;12.20;;;;;;;2.83;97.65;100525.19;125397;1099;103590;-76
2023/01/10 08:38:00;;;;;;;26.33;12.13;;;;;;;2.83;97.16;100538.15;125563;1099;104169;-78
2023/01/10 08:40:31;;;;;;;27.73;11.73;;;;;;;2.83;96.72;100532.08;125377;1098;104253;-78
2023/01/10 08:43:07;;;;;;;31.97;13.07;;;;;;;2.79;97.28;100518.03;125528;1099;104399;-77
2023/01/10 08:45:43;;;;;;;26.53;12.70;;;;;;;2.78;97.45;100503.27;125429;1098;104324;-77
2023/01/10 08:48:20;;;;;;;31.83;11.53;;;;;;;2.75;98.10;100513.42;125504;1099;104245;-79
2023/01/10 08:50:49;;;;;;;;;;;;;;;2.73;97.91;100527.06;125348;1099;102027;-78
2023/01/10 08:53:22;;;;;;;26.67;10.60;;;;;;;2.71;97.98;100514.00;125880;1099;104348;-76
2023/01/10 08:55:54;;;;;;;29.90;11.57;;;;;;;2.71;97.51;100508.81;126899;1098;102882;-77
2023/01/10 08:58:28;;;;;;;29.57;13.03;;;;;;;2.72;97.51;100501.97;126864;1098;103050;-78
2023/01/10 09:01:05;;;;;;;29.15;13.18;;;;;;;2.72;97.52;100504.55;126497;1098;102453;-77
2023/01/10 09:03:39;;;;;;;29.63;12.43;;;;;;;2.74;98.13;100510.73;125551;1099;103661;-77
2023/01/10 09:06:18;;;;;;;32.40;14.00;;;;;;;2.79;97.45;100511.92;125638;1099;103212;-80
2023/01/10 09:08:50;;;;;;;29.60;12.85;;;;;;;2.79;97.53;100505.07;125410;1098;103164;-78
2023/01/10 09:11:22;;;;;;;33.27;13.67;;;;;;;2.81;97.18;100497.40;125278;1099;104450;-77
2023/01/10 09:13:55;;;;;;;32.20;13.73;;;;;;;2.81;97.38;100506.06;125307;1098;104197;-77
2023/01/10 09:16:27;;;;;;;31.62;14.33;;;;;;;2.83;97.11;100500.98;125222;1099;102780;-78
2023/01/10 09:19:00;;;;;;;32.97;14.40;;;;;;;2.84;97.65;100498.48;125332;1098;104267;-78
2023/01/10 09:21:34;;;;;;;33.80;13.67;;;;;;;2.83;97.37;100495.80;124889;1099;102905;-78
2023/01/10 09:24:10;;;;;;;31.10;13.97;;;;;;;2.78;97.45;100492.02;124917;1099;102557;-78
2023/01/10 09:26:41;;;;;;;36.17;12.07;;;;;;;2.79;98.24;100484.34;125425;1098;102434;-79
2023/01/10 09:29:12;;;;;;;30.37;12.10;;;;;;;2.81;99.02;100471.48;125304;1099;104342;-77
2023/01/10 09:31:44;;;;;;;33.27;13.77;;;;;;;2.79;98.54;100488.60;125403;1099;104215;-76
2023/01/10 09:34:15;;;;;;;32.67;14.40;;;;;;;2.80;98.28;100478.34;125372;1099;103446;-77
2023/01/10 09:36:47;;;;;;;30.67;14.30;;;;;;;2.82;99.10;100487.13;125492;1099;104214;-76
2023/01/10 09:39:35;;;;;;;32.87;14.53;;;;;;;2.84;98.35;100484.64;125291;1099;104214;-78
2023/01/10 09:42:30;;;;;;;33.30;13.87;;;;;;;2.84;97.78;100476.88;125343;1099;102076;-78
2023/01/10 09:45:12;;;;;;;29.80;13.07;;;;;;;2.84;98.06;100477.76;124889;1099;102950;-77
2023/01/10 09:47:53;;;;;;;30.93;13.33;;;;;;;2.85;98.39;100478.64;125214;1099;104271;-77
2023/01/10 09:50:34;;;;;;;29.03;13.43;;;;;;;2.86;98.85;100465.78;125180;1098;104191;-77
2023/01/10 09:53:13;;;;;;;33.07;13.23;;;;;;;2.88;98.89;100464.22;126587;1098;102164;-79
2023/01/10 09:55:53;;;;;;;27.50;10.97;;;;;;;2.88;99.63;100464.22;126829;1099;102713;-78
2023/01/10 09:58:28;;;;;;;29.93;12.53;;;;;;;2.87;98.74;100475.37;126917;1099;103072;-79
2023/01/10 10:01:04;;;;;;;32.47;13.30;;;;;;;2.88;99.00;100471.07;126402;1099;102605;-77
2023/01/10 10:03:43;;;;;;;33.93;13.53;;;;;;;2.88;100.00;100473.66;125244;1098;103089;-78
2023/01/10 10:06:16;;;;;;;29.47;12.17;;;;;;;2.88;99.16;100471.99;125385;1099;104204;-76
2023/01/10 10:08:51;;;;;;;28.97;13.07;;;;;;;2.90;99.29;100471.17;125334;1099;104236;-77
2023/01/10 10:11:45;;;;;;;30.03;12.60;;;;;;;2.93;100.00;100458.41;124680;1099;102010;-77
2023/01/10 10:14:35;;;;;;;28.23;12.10;;;;;;;2.95;98.54;100464.62;124771;1099;104306;-78
2023/01/10 10:17:18;;;;;;;27.50;11.80;;;;;;;2.97;100.00;100452.64;125284;1099;104226;-76
2023/01/10 10:20:02;;;;;;;32.87;13.50;;;;;;;2.98;99.58;100459.64;125162;1099;104229;-78
2023/01/10 10:22:46;;;;;;;31.67;13.87;;;;;;;2.99;99.62;100466.59;125244;1098;104189;-77
2023/01/10 10:25:32;;;;;;;31.48;12.35;;;;;;;3.01;99.06;100449.47;125293;1099;103524;-79
2023/01/10 10:28:22;;;;;;;28.87;12.90;;;;;;;3.04;99.53;100454.85;124667;1099;104235;-77
2023/01/10 10:31:04;;;;;;;34.43;13.50;;;;;;;3.04;99.96;100460.92;125277;1099;102330;-79
2023/01/10 10:33:47;;;;;;;28.10;12.30;;;;;;;3.04;99.89;100447.96;125260;1099;104216;-77
2023/01/10 10:36:30;;;;;;;33.27;13.93;;;;;;;3.06;100.00;100459.31;125232;1099;104159;-77
2023/01/10 10:39:04;;;;;;;30.27;11.83;;;;;;;3.09;99.93;100448.26;125387;1098;102872;-77
2023/01/10 10:41:41;;;;;;;36.93;14.00;;;;;;;3.08;99.79;100458.53;125619;1099;102144;-77
2023/01/10 10:44:28;;;;;;;31.70;13.17;;;;;;;3.09;100.00;100463.81;125384;1099;103685;-79
2023/01/10 10:47:01;;;;;;;29.13;12.03;;;;;;;3.07;100.00;100455.05;125370;1099;104428;-79
2023/01/10 10:49:36;;;;;;;;;;;;;;;3.07;100.00;100447.27;125355;1099;102129;-75
2023/01/10 10:52:20;;;;;;;30.57;12.53;;;;;;;3.08;100.00;100443.86;125415;1098;104300;-78
2023/01/10 10:54:54;;;;;;;27.53;11.73;;;;;;;3.10;100.00;100449.14;125489;1099;104169;-78
2023/01/10 10:57:26;;;;;;;;;;;;;;;3.11;100.00;100461.32;125453;1099;102454;-77
2023/01/10 11:00:00;;;;;;;32.03;12.97;;;;;;;3.12;99.75;100463.13;124905;1098;104182;-77
2023/01/10 11:02:33;;;;;;;26.07;11.07;;;;;;;3.12;100.00;100451.05;125332;1099;104226;-77
2023/01/10 11:05:14;;;;;;;22.48;8.30;;;;;;;3.14;100.00;100449.44;126800;1098;102832;-78
2023/01/10 11:07:45;;;;;;;28.07;11.30;;;;;;;3.17;100.00;100440.97;126592;1099;117808;-77
2023/01/10 11:10:41;;;;;;;30.93;12.30;;;;;;;3.17;100.00;100435.79;126656;1099;102600;-78
2023/01/10 11:13:21;;;;;;;27.30;11.07;;;;;;;3.17;100.00;100435.79;126129;1099;102654;-79
2023/01/10 11:15:53;;;;;;;28.40;11.27;;;;;;;3.16;100.00;100440.05;126827;1098;103144;-78
2023/01/10 11:18:26;;;;;;;27.63;11.07;;;;;;;3.18;100.00;100442.75;126778;1098;101759;-77
2023/01/10 11:21:01;;;;;;;29.30;11.90;;;;;;;3.19;100.00;100440.25;126664;1099;102848;-77
2023/01/10 11:23:50;;;;;;;28.13;11.30;;;;;;;3.23;100.00;100446.56;126658;1099;102482;-78
2023/01/10 11:26:33;;;;;;;34.40;12.83;;;;;;;3.22;100.00;100450.83;126704;1098;101971;-77
2023/01/10 11:29:22;;;;;;;30.40;12.20;;;;;;;3.24;100.00;100445.73;126720;1099;102447;-78
2023/01/10 11:31:56;;;;;;;28.20;11.57;;;;;;;3.24;100.00;100453.52;126701;1099;102141;-75
2023/01/10 11:34:33;;;;;;;30.20;12.13;;;;;;;3.26;100.00;100445.83;126885;1098;101987;-76
2023/01/10 11:37:23;;;;;;;28.67;11.67;;;;;;;3.26;100.00;100438.05;126659;1098;102221;-78
2023/01/10 11:40:22;;;;;;;29.20;12.00;;;;;;;3.27;100.00;100452.83;126987;1098;102814;-76
2023/01/10 11:42:56;;;;;;;29.47;12.73;;;;;;;3.30;100.00;100447.84;126937;1098;102350;-79
2023/01/10 11:45:34;;;;;;;28.75;11.25;;;;;;;3.34;100.00;100444.65;126569;1099;101931;-78
2023/01/10 11:48:18;;;;;;;28.87;11.60;;;;;;;3.33;100.00;100448.91;126767;1098;102988;-78
2023/01/10 11:50:55;;;;;;;27.80;10.77;;;;;;;3.33;100.00;100441.14;126843;1098;102027;-80